createdAt,value
2022-09-02T00:01:55.280Z,58.36
2022-09-02T00:04:26.152Z,58.31
2022-09-02T00:06:55.030Z,58.59
2022-09-02T00:09:25.983Z,58.68
2022-09-02T00:11:55.523Z,58.39
2022-09-02T00:14:31.991Z,58.53
2022-09-02T00:17:01.001Z,58.55
2022-09-02T00:19:30.452Z,58.80
2022-09-02T00:21:59.638Z,58.79
2022-09-02T00:24:27.522Z,58.77
2022-09-02T00:26:56.600Z,58.78
2022-09-02T00:29:26.382Z,59.29
2022-09-02T00:31:53.902Z,59.37
2022-09-02T00:34:21.283Z,59.61
2022-09-02T00:36:48.395Z,59.65
2022-09-02T00:39:15.527Z,59.71
2022-09-02T00:41:43.891Z,59.93
2022-09-02T00:44:15.356Z,59.72
2022-09-02T00:46:43.059Z,59.85
2022-09-02T00:49:29.358Z,60.21
2022-09-02T00:52:06.931Z,59.68
2022-09-02T00:54:41.633Z,59.89
2022-09-02T00:57:15.803Z,59.84
2022-09-02T01:00:06.321Z,59.83
2022-09-02T01:02:34.402Z,60.15
2022-09-02T01:05:04.105Z,60.16
2022-09-02T01:07:36.828Z,60.12
2022-09-02T01:10:08.182Z,60.47
2022-09-02T01:12:36.277Z,60.36
2022-09-02T01:15:07.057Z,60.39
2022-09-02T01:17:34.897Z,60.26
2022-09-02T01:20:12.046Z,60.29
2022-09-02T01:22:45.851Z,60.41
2022-09-02T01:25:22.587Z,60.36
2022-09-02T01:27:50.679Z,60.43
2022-09-02T01:30:25.195Z,60.47
2022-09-02T01:32:53.678Z,60.75
2022-09-02T01:35:20.854Z,60.43
2022-09-02T01:37:54.796Z,60.18
2022-09-02T01:40:25.847Z,60.42
2022-09-02T01:43:06.135Z,60.47
2022-09-02T01:45:38.118Z,60.45
2022-09-02T01:48:07.474Z,60.39
2022-09-02T01:50:42.513Z,60.21
2022-09-02T01:53:12.710Z,60.37
2022-09-02T01:55:39.895Z,60.29
2022-09-02T01:58:07.501Z,60.51
2022-09-02T02:00:35.007Z,60.48
2022-09-02T02:03:02.416Z,60.58
2022-09-02T02:05:31.495Z,60.65
2022-09-02T02:08:00.509Z,60.54
2022-09-02T02:10:28.144Z,60.48
2022-09-02T02:12:55.426Z,60.68
2022-09-02T02:17:50.755Z,60.96
2022-09-02T02:20:22.054Z,61.01
2022-09-02T02:22:49.571Z,61.09
2022-09-02T02:25:17.981Z,61.00
2022-09-02T02:27:49.972Z,60.85
2022-09-02T02:30:17.940Z,60.81
2022-09-02T02:32:47.359Z,60.73
2022-09-02T02:35:20.058Z,60.77
2022-09-02T02:37:50.409Z,60.61
2022-09-02T02:40:24.218Z,60.79
2022-09-02T02:42:53.601Z,60.90
2022-09-02T02:45:24.110Z,60.83
2022-09-02T02:47:52.395Z,60.74
2022-09-02T02:50:23.962Z,60.53
2022-09-02T02:52:53.836Z,60.81
2022-09-02T02:55:25.583Z,61.08
2022-09-02T02:57:53.001Z,61.25
2022-09-02T03:00:28.649Z,60.85
2022-09-02T03:03:03.461Z,60.93
2022-09-02T03:05:32.384Z,61.09
2022-09-02T03:07:59.984Z,60.84
2022-09-02T03:10:27.613Z,60.93
2022-09-02T03:12:54.971Z,61.05
2022-09-02T03:15:23.045Z,60.87
2022-09-02T03:17:53.369Z,60.95
2022-09-02T03:20:21.771Z,60.69
2022-09-02T03:22:56.540Z,60.49
2022-09-02T03:25:25.694Z,60.80
2022-09-02T03:27:56.965Z,60.74
2022-09-02T03:30:30.445Z,60.81
2022-09-02T03:33:03.812Z,60.76
2022-09-02T03:35:34.444Z,60.87
2022-09-02T03:38:01.859Z,61.17
2022-09-02T03:40:30.198Z,61.03
2022-09-02T03:43:00.204Z,61.02
2022-09-02T03:45:29.515Z,60.82
2022-09-02T03:47:59.321Z,60.72
2022-09-02T03:50:36.471Z,60.64
2022-09-02T03:53:05.600Z,60.91
2022-09-02T03:55:33.043Z,61.02
2022-09-02T03:58:01.380Z,61.15
2022-09-02T04:00:31.940Z,61.24
2022-09-02T04:03:02.489Z,61.29
2022-09-02T04:05:30.934Z,61.07
2022-09-02T04:08:00.663Z,61.21
2022-09-02T04:10:29.247Z,61.01
2022-09-02T04:12:56.806Z,61.23
2022-09-02T04:15:23.986Z,61.32
2022-09-02T04:17:51.726Z,61.29
2022-09-02T04:20:21.137Z,61.41
2022-09-02T04:22:48.262Z,61.35
2022-09-02T04:25:17.799Z,61.17
2022-09-02T04:27:46.849Z,61.13
2022-09-02T04:30:16.508Z,61.00
2022-09-02T04:32:44.658Z,60.98
2022-09-02T04:35:12.716Z,60.85
2022-09-02T04:37:40.195Z,60.49
2022-09-02T04:40:09.113Z,60.65
2022-09-02T04:42:37.844Z,61.03
2022-09-02T04:45:06.438Z,60.74
2022-09-02T04:47:34.289Z,60.81
2022-09-02T04:50:02.283Z,60.70
2022-09-02T04:52:31.599Z,60.61
2022-09-02T04:54:59.824Z,60.07
2022-09-02T04:57:29.987Z,59.90
2022-09-02T04:59:57.391Z,59.65
2022-09-02T05:02:24.729Z,59.08
2022-09-02T05:04:52.567Z,59.10
2022-09-02T05:07:28.050Z,58.88
2022-09-02T05:09:59.788Z,58.57
2022-09-02T05:12:34.578Z,58.52
2022-09-02T05:15:03.004Z,58.33
2022-09-02T05:17:33.070Z,58.35
2022-09-02T05:20:01.617Z,58.26
2022-09-02T05:22:30.036Z,57.89
2022-09-02T05:25:00.030Z,57.57
2022-09-02T05:27:29.450Z,57.46
2022-09-02T05:29:59.598Z,57.63
2022-09-02T05:32:28.579Z,57.34
2022-09-02T05:34:56.562Z,57.21
2022-09-02T05:37:24.785Z,56.89
2022-09-02T05:39:52.985Z,56.32
2022-09-02T05:42:20.686Z,56.13
2022-09-02T05:44:51.505Z,55.83
2022-09-02T05:47:21.229Z,55.25
2022-09-02T05:49:48.948Z,54.62
2022-09-02T05:52:18.153Z,53.94
2022-09-02T05:54:49.410Z,53.76
2022-09-02T05:57:20.820Z,53.35
2022-09-02T05:59:56.931Z,53.09
2022-09-02T06:02:29.863Z,52.96
2022-09-02T06:04:57.206Z,52.71
2022-09-02T06:07:26.319Z,52.45
2022-09-02T06:09:55.314Z,52.36
2022-09-02T06:12:26.197Z,51.83
2022-09-02T06:14:54.414Z,51.48
2022-09-02T06:17:27.279Z,51.36
2022-09-02T06:19:56.553Z,50.90
2022-09-02T06:22:26.991Z,50.06
2022-09-02T06:24:56.057Z,50.21
2022-09-02T06:27:26.668Z,49.96
2022-09-02T06:29:54.888Z,49.99
2022-09-02T06:32:24.587Z,49.43
2022-09-02T06:34:58.776Z,48.88
2022-09-02T06:37:28.014Z,47.88
2022-09-02T06:39:55.894Z,47.45
2022-09-02T06:42:26.953Z,47.31
2022-09-02T06:45:31.515Z,46.57
2022-09-02T06:48:01.974Z,46.18
2022-09-02T06:50:40.788Z,45.83
2022-09-02T06:53:09.360Z,45.71
2022-09-02T06:55:43.496Z,45.36
2022-09-02T06:58:11.824Z,44.77
2022-09-02T07:00:41.556Z,44.26
2022-09-02T07:03:29.096Z,44.35
2022-09-02T07:06:10.945Z,43.63
2022-09-02T07:08:44.424Z,43.53
2022-09-02T07:11:21.854Z,43.39
2022-09-02T07:13:51.644Z,43.44
2022-09-02T07:16:27.239Z,43.39
2022-09-02T07:18:58.269Z,43.32
2022-09-02T07:21:26.322Z,42.89
2022-09-02T07:23:54.014Z,42.51
2022-09-02T07:26:21.973Z,41.95
2022-09-02T07:28:52.192Z,42.08
2022-09-02T07:31:23.356Z,42.11
2022-09-02T07:33:51.206Z,41.65
2022-09-02T07:36:21.639Z,41.37
2022-09-02T07:38:49.411Z,40.97
2022-09-02T07:41:16.967Z,40.77
2022-09-02T07:43:48.376Z,40.57
2022-09-02T07:46:19.314Z,40.68
2022-09-02T07:48:52.086Z,40.46
2022-09-02T07:51:20.177Z,40.71
2022-09-02T07:53:49.680Z,40.04
2022-09-02T07:56:18.131Z,40.00
2022-09-02T07:58:46.560Z,39.72
2022-09-02T08:01:14.759Z,39.92
2022-09-02T08:03:45.119Z,40.24
2022-09-02T08:06:14.177Z,39.07
2022-09-02T08:08:43.562Z,38.94
2022-09-02T08:11:14.350Z,38.98
2022-09-02T08:13:41.686Z,38.90
2022-09-02T08:16:08.920Z,38.63
2022-09-02T08:18:36.766Z,38.96
2022-09-02T08:21:04.203Z,38.74
2022-09-02T08:23:37.243Z,38.12
2022-09-02T08:26:06.530Z,37.85
2022-09-02T08:28:35.172Z,38.18
2022-09-02T08:31:07.133Z,37.53
2022-09-02T08:33:35.178Z,37.52
2022-09-02T08:36:05.487Z,38.15
2022-09-02T08:38:32.980Z,37.85
2022-09-02T08:41:00.927Z,37.53
2022-09-02T08:43:40.499Z,37.60
2022-09-02T08:46:12.178Z,37.96
2022-09-02T08:48:57.381Z,37.24
2022-09-02T08:51:33.867Z,36.41
2022-09-02T08:54:26.739Z,36.88
2022-09-02T08:56:53.865Z,37.00
2022-09-02T08:59:26.614Z,35.90
2022-09-02T09:02:09.621Z,34.91
2022-09-02T09:05:10.118Z,35.50
2022-09-02T09:07:46.687Z,35.62
2022-09-02T09:10:26.139Z,35.60
2022-09-02T09:13:28.200Z,35.61
2022-09-02T09:16:32.261Z,34.53
2022-09-02T09:19:12.311Z,33.39
2022-09-02T09:21:40.979Z,33.23
2022-09-02T09:24:38.685Z,33.10
2022-09-02T09:27:18.889Z,33.73
2022-09-02T09:29:47.015Z,34.68
2022-09-02T09:32:30.687Z,32.93
2022-09-02T09:35:06.982Z,33.10
2022-09-02T09:37:45.828Z,33.10
2022-09-02T09:40:30.626Z,33.05
2022-09-02T09:43:14.500Z,32.08
2022-09-02T09:45:48.265Z,32.78
2022-09-02T09:48:38.910Z,31.31
2022-09-02T09:51:05.978Z,31.80
2022-09-02T09:53:37.746Z,32.88
2022-09-02T09:56:14.372Z,31.74
2022-09-02T09:58:41.669Z,30.56
2022-09-02T10:01:33.653Z,31.18
2022-09-02T10:04:03.149Z,31.17
2022-09-02T10:06:30.945Z,30.45
2022-09-02T10:09:01.717Z,29.73
2022-09-02T10:11:32.920Z,31.17
2022-09-02T10:14:04.532Z,30.24
2022-09-02T10:17:11.740Z,30.01
2022-09-02T10:19:50.976Z,29.33
2022-09-02T10:22:58.394Z,28.84
2022-09-02T10:25:37.919Z,29.33
2022-09-02T10:28:12.799Z,29.96
2022-09-02T10:30:57.501Z,28.47
2022-09-02T10:33:57.472Z,28.58
2022-09-02T10:36:28.705Z,28.16
2022-09-02T10:39:13.735Z,28.36
2022-09-02T10:44:32.680Z,28.29
2022-09-02T10:47:29.476Z,27.63
2022-09-02T10:50:48.116Z,27.48
2022-09-02T10:54:01.078Z,27.49
2022-09-02T10:56:40.306Z,29.21
2022-09-02T10:59:19.072Z,28.34
2022-09-02T11:01:57.678Z,27.58
2022-09-02T11:04:54.975Z,27.66
2022-09-02T11:07:47.924Z,27.51
2022-09-02T11:10:41.408Z,26.53
2022-09-02T11:13:38.099Z,26.35
2022-09-02T11:16:20.905Z,26.96
2022-09-02T11:19:08.668Z,27.02
2022-09-02T11:21:43.070Z,27.99
2022-09-02T11:24:35.738Z,27.56
2022-09-02T11:27:43.320Z,28.39
2022-09-02T11:30:13.546Z,28.88
2022-09-02T11:33:05.547Z,27.84
2022-09-02T11:35:39.358Z,27.51
2022-09-02T11:38:47.684Z,26.84
2022-09-02T11:41:35.587Z,26.60
2022-09-02T11:44:39.136Z,24.64
2022-09-02T11:47:26.862Z,22.42
2022-09-02T11:50:21.969Z,22.39
2022-09-02T11:53:16.375Z,22.80
2022-09-02T11:56:02.543Z,22.73
2022-09-02T11:58:37.265Z,23.86
2022-09-02T12:01:14.988Z,24.81
2022-09-02T12:04:48.609Z,25.12
2022-09-02T12:07:22.260Z,25.77
2022-09-02T12:09:56.751Z,26.39
2022-09-02T12:12:39.190Z,26.88
2022-09-02T12:15:06.731Z,27.15
2022-09-02T12:18:24.249Z,27.31
2022-09-02T12:21:00.670Z,27.04
2022-09-02T12:23:55.372Z,27.21
2022-09-02T12:26:22.462Z,27.74
2022-09-02T12:28:52.307Z,27.29
2022-09-02T12:31:43.383Z,27.19
2022-09-02T12:34:25.716Z,26.80
2022-09-02T12:38:03.973Z,26.60
2022-09-02T12:40:38.011Z,26.17
2022-09-02T12:43:19.978Z,26.64
2022-09-02T12:45:48.366Z,25.92
2022-09-02T12:48:28.617Z,25.53
2022-09-02T12:51:05.952Z,25.62
2022-09-02T12:53:43.894Z,24.80
2022-09-02T12:56:19.557Z,24.27
2022-09-02T12:58:51.229Z,25.76
2022-09-02T13:01:54.061Z,23.73
2022-09-02T13:04:39.549Z,22.17
2022-09-02T13:07:40.393Z,19.07
2022-09-02T13:10:22.514Z,19.20
2022-09-02T13:13:39.252Z,20.14
2022-09-02T13:16:18.351Z,22.07
2022-09-02T13:18:51.872Z,23.71
2022-09-02T13:21:32.266Z,24.96
2022-09-02T13:24:41.424Z,25.99
2022-09-02T13:27:43.565Z,27.07
2022-09-02T13:30:19.605Z,27.20
2022-09-02T13:32:57.570Z,27.13
2022-09-02T13:35:27.952Z,27.46
2022-09-02T13:38:00.802Z,27.44
2022-09-02T13:40:34.317Z,27.51
2022-09-02T13:43:12.391Z,27.63
2022-09-02T13:45:40.837Z,28.44
2022-09-02T13:48:17.054Z,27.90
2022-09-02T13:50:47.355Z,28.09
2022-09-02T13:54:11.613Z,28.56
2022-09-02T13:56:27.869Z,27.94
2022-09-02T13:58:57.111Z,27.86
2022-09-02T14:01:35.751Z,27.89
2022-09-02T14:04:14.914Z,29.21
2022-09-02T14:06:45.929Z,28.05
2022-09-02T14:09:25.171Z,28.99
2022-09-02T14:11:53.992Z,28.40
2022-09-02T14:14:24.671Z,27.64
2022-09-02T14:16:52.738Z,28.12
2022-09-02T14:19:25.006Z,28.14
2022-09-02T14:21:58.115Z,27.31
2022-09-02T14:24:29.779Z,23.52
2022-09-02T14:26:59.331Z,21.05
2022-09-02T14:29:32.076Z,19.58
2022-09-02T14:32:24.539Z,18.61
2022-09-02T14:35:20.068Z,17.95
2022-09-02T14:37:59.609Z,18.51
2022-09-02T14:40:38.744Z,19.46
2022-09-02T14:43:13.630Z,20.96
2022-09-02T14:45:47.971Z,21.39
2022-09-02T14:48:22.348Z,21.81
2022-09-02T14:51:02.228Z,22.62
2022-09-02T14:53:30.329Z,22.09
2022-09-02T14:55:58.047Z,21.88
2022-09-02T14:58:28.010Z,21.61
2022-09-02T15:01:01.078Z,23.58
2022-09-02T15:03:30.702Z,23.65
2022-09-02T15:05:58.058Z,24.11
2022-09-02T15:08:25.541Z,23.58
2022-09-02T15:10:54.514Z,24.97
2022-09-02T15:13:28.621Z,24.63
2022-09-02T15:15:56.176Z,24.47
2022-09-02T15:18:24.196Z,24.99
2022-09-02T15:20:52.585Z,26.08
2022-09-02T15:23:19.819Z,26.28
2022-09-02T15:25:47.529Z,26.94
2022-09-02T15:28:14.722Z,27.72
2022-09-02T15:30:42.051Z,28.58
2022-09-02T15:33:14.723Z,29.37
2022-09-02T15:35:47.474Z,29.31
2022-09-02T15:38:14.686Z,29.37
2022-09-02T15:40:42.039Z,28.54
2022-09-02T15:43:09.165Z,25.61
2022-09-02T15:45:47.370Z,24.69
2022-09-02T15:48:15.557Z,23.89
2022-09-02T15:50:43.058Z,23.59
2022-09-02T15:53:15.863Z,24.38
2022-09-02T15:55:43.226Z,23.58
2022-09-02T15:58:10.372Z,25.32
2022-09-02T16:00:37.656Z,25.19
2022-09-02T16:03:04.827Z,25.25
2022-09-02T16:05:32.446Z,25.81
2022-09-02T16:07:59.742Z,25.50
2022-09-02T16:10:27.087Z,24.79
2022-09-02T16:12:54.202Z,22.75
2022-09-02T16:15:21.285Z,21.52
2022-09-02T16:17:49.532Z,22.39
2022-09-02T16:20:20.563Z,22.89
2022-09-02T16:22:48.694Z,24.03
2022-09-02T16:25:15.822Z,22.79
2022-09-02T16:27:56.380Z,21.79
2022-09-02T16:30:24.966Z,21.63
2022-09-02T16:32:53.643Z,21.12
2022-09-02T16:35:20.914Z,22.30
2022-09-02T16:37:48.110Z,23.71
2022-09-02T16:40:21.315Z,25.64
2022-09-02T16:42:49.084Z,26.17
2022-09-02T16:45:16.374Z,27.04
2022-09-02T16:47:43.411Z,27.23
2022-09-02T16:50:12.657Z,28.24
2022-09-02T16:52:41.100Z,28.26
2022-09-02T16:55:08.864Z,29.06
2022-09-02T16:57:36.033Z,29.21
2022-09-02T17:00:05.599Z,29.55
2022-09-02T17:02:32.719Z,30.35
2022-09-02T17:04:59.915Z,30.60
2022-09-02T17:07:27.046Z,29.97
2022-09-02T17:09:54.186Z,30.34
2022-09-02T17:12:21.649Z,30.50
2022-09-02T17:14:48.919Z,30.90
2022-09-02T17:17:17.222Z,31.35
2022-09-02T17:19:44.402Z,31.00
2022-09-02T17:22:11.509Z,31.17
2022-09-02T17:24:41.873Z,31.49
2022-09-02T17:27:09.373Z,31.91
2022-09-02T17:29:51.927Z,31.88
2022-09-02T17:32:20.151Z,32.59
2022-09-02T17:34:49.912Z,32.25
2022-09-02T17:37:17.288Z,33.01
2022-09-02T17:39:44.660Z,33.80
2022-09-02T17:42:14.672Z,32.78
2022-09-02T17:44:42.971Z,32.60
2022-09-02T17:47:17.293Z,32.70
2022-09-02T17:49:45.002Z,32.97
2022-09-02T17:52:23.086Z,33.06
2022-09-02T17:54:53.570Z,33.19
2022-09-02T17:57:54.663Z,33.62
2022-09-02T18:00:22.550Z,33.50
2022-09-02T18:03:13.337Z,33.80
2022-09-02T18:06:00.578Z,33.61
2022-09-02T18:08:44.024Z,33.86
2022-09-02T18:11:13.567Z,33.98
2022-09-02T18:14:10.419Z,34.53
2022-09-02T18:16:52.796Z,33.89
2022-09-02T18:20:14.185Z,34.87
2022-09-02T18:23:10.901Z,34.12
2022-09-02T18:26:08.062Z,34.78
2022-09-02T18:28:51.620Z,34.62
2022-09-02T18:31:34.281Z,34.77
2022-09-02T18:34:30.600Z,34.63
2022-09-02T18:37:13.735Z,34.52
2022-09-02T18:40:13.249Z,34.51
2022-09-02T18:43:35.033Z,34.72
2022-09-02T18:46:03.411Z,35.23
2022-09-02T18:48:36.749Z,34.60
2022-09-02T18:51:18.922Z,34.51
2022-09-02T18:53:51.770Z,34.87
2022-09-02T18:56:22.964Z,34.93
2022-09-02T18:59:02.401Z,34.92
2022-09-02T19:01:35.573Z,34.81
2022-09-02T19:04:03.137Z,34.71
2022-09-02T19:06:36.465Z,35.10
2022-09-02T19:09:12.811Z,35.29
2022-09-02T19:11:40.812Z,35.34
2022-09-02T19:14:28.821Z,35.50
2022-09-02T19:16:58.489Z,35.53
2022-09-02T19:19:27.765Z,35.75
2022-09-02T19:22:00.592Z,35.92
2022-09-02T19:25:04.844Z,35.93
2022-09-02T19:27:35.974Z,35.94
2022-09-02T19:30:10.688Z,35.89
2022-09-02T19:32:43.803Z,36.36
2022-09-02T19:35:16.648Z,36.67
2022-09-02T19:37:51.377Z,37.00
2022-09-02T19:40:24.999Z,36.99
2022-09-02T19:42:53.992Z,37.44
2022-09-02T19:45:23.414Z,37.64
2022-09-02T19:48:09.674Z,38.42
2022-09-02T19:50:43.421Z,37.71
2022-09-02T19:53:23.666Z,37.87
2022-09-02T19:55:53.378Z,37.88
2022-09-02T19:58:20.599Z,38.36
2022-09-02T20:00:48.537Z,38.30
2022-09-02T20:03:16.314Z,38.32
2022-09-02T20:05:43.594Z,38.56
2022-09-02T20:08:10.740Z,38.18
2022-09-02T20:10:42.378Z,38.76
2022-09-02T20:13:13.788Z,38.94
2022-09-02T20:15:40.917Z,38.95
2022-09-02T20:18:15.235Z,39.27
2022-09-02T20:20:48.025Z,39.52
2022-09-02T20:23:17.767Z,39.46
2022-09-02T20:26:02.751Z,39.50
2022-09-02T20:28:45.816Z,39.63
2022-09-02T20:31:32.014Z,39.62
2022-09-02T20:34:57.662Z,40.08
2022-09-02T20:37:51.900Z,40.50
2022-09-02T20:40:35.362Z,40.26
2022-09-02T20:43:49.184Z,40.39
2022-09-02T20:46:52.573Z,40.33
2022-09-02T20:50:06.933Z,40.66
2022-09-02T20:53:17.989Z,40.43
2022-09-02T20:55:52.366Z,40.66
2022-09-02T20:58:57.466Z,41.05
2022-09-02T21:01:38.950Z,41.17
2022-09-02T21:04:33.324Z,41.30
2022-09-02T21:07:21.793Z,41.31
2022-09-02T21:09:51.813Z,41.47
2022-09-02T21:12:36.657Z,41.36
2022-09-02T21:15:32.201Z,41.36
2022-09-02T21:18:10.774Z,41.49
2022-09-02T21:21:03.814Z,41.49
2022-09-02T21:23:46.895Z,41.92
2022-09-02T21:26:43.132Z,42.29
2022-09-02T21:29:29.558Z,42.43
2022-09-02T21:32:14.094Z,42.61
2022-09-02T21:34:50.759Z,42.49
2022-09-02T21:37:20.119Z,42.42
2022-09-02T21:39:55.591Z,42.36
2022-09-02T21:43:17.426Z,42.28
2022-09-02T21:46:14.803Z,42.42
2022-09-02T21:49:06.171Z,43.38
2022-09-02T21:51:42.134Z,43.72
2022-09-02T21:54:33.774Z,43.42
2022-09-02T21:57:37.957Z,44.06
2022-09-02T22:00:12.402Z,44.53
2022-09-02T22:03:04.183Z,45.04
2022-09-02T22:06:02.679Z,45.74
2022-09-02T22:08:41.215Z,45.70
2022-09-02T22:11:17.187Z,46.14
2022-09-02T22:13:45.352Z,46.35
2022-09-02T22:16:35.717Z,46.38
2022-09-02T22:19:10.108Z,47.00
2022-09-02T22:21:48.801Z,47.08
2022-09-02T22:24:27.523Z,47.03
2022-09-02T22:27:17.364Z,47.04
2022-09-02T22:30:05.054Z,47.11
2022-09-02T22:32:41.942Z,47.15
2022-09-02T22:35:22.094Z,47.39
2022-09-02T22:38:26.457Z,47.39
2022-09-02T22:41:20.009Z,47.66
2022-09-02T22:43:53.965Z,47.59
2022-09-02T22:46:52.642Z,47.84
2022-09-02T22:49:51.103Z,47.88
2022-09-02T22:52:47.316Z,47.94
2022-09-02T22:55:22.281Z,47.91
2022-09-02T22:58:23.820Z,47.48
2022-09-02T23:01:26.140Z,47.39
2022-09-02T23:04:08.332Z,47.48
2022-09-02T23:06:35.482Z,47.39
2022-09-02T23:09:09.278Z,47.51
2022-09-02T23:12:06.382Z,47.27
2022-09-02T23:14:38.154Z,47.30
2022-09-02T23:17:43.699Z,47.31
2022-09-02T23:20:22.652Z,47.32
2022-09-02T23:22:57.920Z,47.28
2022-09-02T23:26:09.805Z,47.13
2022-09-02T23:28:58.103Z,47.21
2022-09-02T23:32:05.076Z,46.88
2022-09-02T23:34:44.018Z,47.08
2022-09-02T23:38:11.325Z,47.46
2022-09-02T23:41:00.162Z,47.19
2022-09-02T23:43:27.672Z,47.05
2022-09-02T23:45:56.843Z,46.63
2022-09-02T23:48:45.055Z,47.17
2022-09-02T23:51:31.759Z,47.20
2022-09-02T23:54:17.072Z,47.60
2022-09-02T23:57:05.169Z,47.89
2022-09-02T23:59:59.206Z,47.95
